createdAt,value
2018-08-10T00:01:27.687Z,68.10
2018-08-10T00:03:56.399Z,67.90
2018-08-10T00:06:25.020Z,67.80
2018-08-10T00:08:53.531Z,68.00
2018-08-10T00:11:22.076Z,68.30
2018-08-10T00:13:50.551Z,68.10
2018-08-10T00:16:19.041Z,67.80
2018-08-10T00:18:47.672Z,67.70
2018-08-10T00:21:16.138Z,67.90
2018-08-10T00:23:44.590Z,67.70
2018-08-10T00:26:13.057Z,67.50
2018-08-10T00:28:41.542Z,67.50
2018-08-10T00:31:09.975Z,67.30
2018-08-10T00:33:38.733Z,67.30
2018-08-10T00:36:07.240Z,67.40
2018-08-10T00:38:35.795Z,68.00
2018-08-10T00:41:04.242Z,67.80
2018-08-10T00:43:32.826Z,67.50
2018-08-10T00:46:01.306Z,66.90
2018-08-10T00:48:29.804Z,66.50
2018-08-10T00:50:58.494Z,67.10
2018-08-10T00:53:26.946Z,66.50
2018-08-10T00:55:55.834Z,66.90
2018-08-10T00:58:24.750Z,66.70
2018-08-10T01:00:53.293Z,67.00
2018-08-10T01:03:21.787Z,66.00
2018-08-10T01:05:50.300Z,66.40
2018-08-10T01:08:18.753Z,66.70
2018-08-10T01:10:47.226Z,66.70
2018-08-10T01:13:15.804Z,66.80
2018-08-10T01:15:44.314Z,66.60
2018-08-10T01:18:12.785Z,66.50
2018-08-10T01:20:41.315Z,66.80
2018-08-10T01:23:09.770Z,66.80
2018-08-10T01:25:38.294Z,66.70
2018-08-10T01:28:06.746Z,67.10
2018-08-10T01:30:36.136Z,67.00
2018-08-10T01:33:04.679Z,67.20
2018-08-10T01:35:33.218Z,67.10
2018-08-10T01:38:02.641Z,67.00
2018-08-10T01:40:31.186Z,66.70
2018-08-10T01:42:59.706Z,66.80
2018-08-10T01:45:28.206Z,66.90
2018-08-10T01:47:56.613Z,66.70
2018-08-10T01:50:25.072Z,66.50
2018-08-10T01:52:53.449Z,66.70
2018-08-10T01:55:21.825Z,66.50
2018-08-10T01:57:50.166Z,66.80
2018-08-10T02:00:18.562Z,66.70
2018-08-10T02:02:46.946Z,66.60
2018-08-10T02:05:16.071Z,66.20
2018-08-10T02:07:44.545Z,66.40
2018-08-10T02:10:17.487Z,66.60
2018-08-10T02:12:50.325Z,66.00
2018-08-10T02:15:18.695Z,66.30
2018-08-10T02:17:47.013Z,66.80
2018-08-10T02:20:16.969Z,66.00
2018-08-10T02:22:45.563Z,66.30
2018-08-10T02:25:15.231Z,66.70
2018-08-10T02:27:44.571Z,66.50
2018-08-10T02:30:14.228Z,66.60
2018-08-10T02:32:43.421Z,66.50
2018-08-10T02:35:11.890Z,66.90
2018-08-10T02:37:40.731Z,66.60
2018-08-10T02:40:18.151Z,66.50
2018-08-10T02:42:47.560Z,66.10
2018-08-10T02:45:16.347Z,66.20
2018-08-10T02:47:45.050Z,66.60
2018-08-10T02:50:13.477Z,66.60
2018-08-10T02:52:41.827Z,66.40
2018-08-10T02:55:10.792Z,66.10
2018-08-10T02:57:39.286Z,66.20
2018-08-10T03:00:09.777Z,66.20
2018-08-10T03:02:38.113Z,66.80
2018-08-10T03:05:07.074Z,66.80
2018-08-10T03:07:35.421Z,66.90
2018-08-10T03:10:04.226Z,67.10
2018-08-10T03:12:32.623Z,66.90
2018-08-10T03:15:00.993Z,67.20
2018-08-10T03:17:29.383Z,67.50
2018-08-10T03:19:57.746Z,67.50
2018-08-10T03:22:26.115Z,67.60
2018-08-10T03:24:54.469Z,67.50
2018-08-10T03:27:23.136Z,67.70
2018-08-10T03:29:51.588Z,67.70
2018-08-10T03:32:19.948Z,66.70
2018-08-10T03:34:50.145Z,65.50
2018-08-10T03:37:18.508Z,65.40
2018-08-10T03:39:47.121Z,64.60
2018-08-10T03:42:15.492Z,63.70
2018-08-10T03:44:43.834Z,64.20
2018-08-10T03:47:12.599Z,62.90
2018-08-10T03:49:41.001Z,62.50
2018-08-10T03:52:09.383Z,62.50
2018-08-10T03:54:37.941Z,61.50
2018-08-10T03:57:06.394Z,61.40
2018-08-10T03:59:34.725Z,60.90
2018-08-10T04:02:03.093Z,60.90
2018-08-10T04:04:31.426Z,61.00
2018-08-10T04:06:59.824Z,61.30
2018-08-10T04:09:28.266Z,61.60
2018-08-10T04:11:56.600Z,61.40
2018-08-10T04:14:24.942Z,62.00
2018-08-10T04:16:53.310Z,62.30
2018-08-10T04:19:21.649Z,62.30
2018-08-10T04:21:50.010Z,62.40
2018-08-10T04:24:18.402Z,62.50
2018-08-10T04:26:47.733Z,62.30
2018-08-10T04:29:16.080Z,62.80
2018-08-10T04:31:44.418Z,62.60
2018-08-10T04:34:12.745Z,62.70
2018-08-10T04:36:41.109Z,61.90
2018-08-10T04:39:11.768Z,61.90
2018-08-10T04:41:40.108Z,62.30
2018-08-10T04:44:08.436Z,61.80
2018-08-10T04:46:37.611Z,62.00
2018-08-10T04:49:06.361Z,62.20
2018-08-10T04:51:34.945Z,62.30
2018-08-10T04:54:03.292Z,62.50
2018-08-10T04:56:32.809Z,62.70
2018-08-10T04:59:01.154Z,63.00
2018-08-10T05:01:29.648Z,62.80
2018-08-10T05:03:57.981Z,62.80
2018-08-10T05:06:26.325Z,63.30
2018-08-10T05:08:54.705Z,63.10
2018-08-10T05:11:23.021Z,63.50
2018-08-10T05:13:51.483Z,63.60
2018-08-10T05:16:20.004Z,63.60
2018-08-10T05:18:48.444Z,64.00
2018-08-10T05:21:16.767Z,64.30
2018-08-10T05:23:45.188Z,64.20
2018-08-10T05:26:13.961Z,64.20
2018-08-10T05:28:42.372Z,64.20
2018-08-10T05:31:10.697Z,64.10
2018-08-10T05:33:39.050Z,64.40
2018-08-10T05:36:07.640Z,64.60
2018-08-10T05:38:37.572Z,63.80
2018-08-10T05:41:05.942Z,63.20
2018-08-10T05:43:34.482Z,64.00
2018-08-10T05:46:03.065Z,64.20
2018-08-10T05:48:36.820Z,64.30
2018-08-10T05:51:05.386Z,63.80
2018-08-10T05:53:33.629Z,63.50
2018-08-10T05:56:01.945Z,63.70
2018-08-10T05:58:30.671Z,62.40
2018-08-10T06:00:58.983Z,62.80
2018-08-10T06:03:28.329Z,63.10
2018-08-10T06:05:56.496Z,62.80
2018-08-10T06:08:24.884Z,62.00
2018-08-10T06:10:53.242Z,62.30
2018-08-10T06:13:21.665Z,62.40
2018-08-10T06:15:49.977Z,63.10
2018-08-10T06:18:18.374Z,63.20
2018-08-10T06:20:46.738Z,63.00
2018-08-10T06:23:15.094Z,62.40
2018-08-10T06:25:43.621Z,63.10
2018-08-10T06:28:12.040Z,61.60
2018-08-10T06:30:40.500Z,61.70
2018-08-10T06:33:08.900Z,62.00
2018-08-10T06:35:37.488Z,61.80
2018-08-10T06:38:06.186Z,62.00
2018-08-10T06:40:34.519Z,61.10
2018-08-10T06:43:02.878Z,61.60
2018-08-10T06:45:31.203Z,61.40
2018-08-10T06:47:59.576Z,61.20
2018-08-10T06:50:27.909Z,61.20
2018-08-10T06:52:56.253Z,60.80
2018-08-10T06:55:24.818Z,60.30
2018-08-10T06:57:53.198Z,60.60
2018-08-10T07:00:21.550Z,60.30
2018-08-10T07:02:49.919Z,60.60
2018-08-10T07:05:18.245Z,61.40
2018-08-10T07:07:46.626Z,60.80
2018-08-10T07:10:14.931Z,60.70
2018-08-10T07:13:20.429Z,60.60
2018-08-10T07:15:48.742Z,60.60
2018-08-10T07:18:17.100Z,60.80
2018-08-10T07:20:45.448Z,59.80
2018-08-10T07:23:13.820Z,59.50
2018-08-10T07:25:42.480Z,60.00
2018-08-10T07:28:10.816Z,59.70
2018-08-10T07:30:39.193Z,58.30
2018-08-10T07:33:07.527Z,58.50
2018-08-10T07:35:35.956Z,58.90
2018-08-10T07:38:04.429Z,58.60
2018-08-10T07:40:32.802Z,57.70
2018-08-10T07:43:01.144Z,57.90
2018-08-10T07:45:29.561Z,57.60
2018-08-10T07:47:57.936Z,58.00
2018-08-10T07:50:26.265Z,56.50
2018-08-10T07:52:54.590Z,56.80
2018-08-10T07:55:22.945Z,57.40
2018-08-10T07:57:51.342Z,56.60
2018-08-10T08:00:19.684Z,56.50
2018-08-10T08:02:48.051Z,56.80
2018-08-10T08:05:16.414Z,56.50
2018-08-10T08:07:44.786Z,57.40
2018-08-10T08:10:13.409Z,57.40
2018-08-10T08:12:41.804Z,56.60
2018-08-10T08:15:10.400Z,57.30
2018-08-10T08:17:38.761Z,55.80
2018-08-10T08:20:08.225Z,56.20
2018-08-10T08:22:36.556Z,56.60
2018-08-10T08:25:05.532Z,56.90
2018-08-10T08:27:33.939Z,56.30
2018-08-10T08:30:03.073Z,56.90
2018-08-10T08:32:31.556Z,56.30
2018-08-10T08:35:00.032Z,55.70
2018-08-10T08:37:28.319Z,56.00
2018-08-10T08:40:09.078Z,55.60
2018-08-10T08:42:38.034Z,56.50
2018-08-10T08:45:45.141Z,55.60
2018-08-10T08:48:13.333Z,55.70
2018-08-10T08:50:45.072Z,54.80
2018-08-10T08:53:13.470Z,54.70
2018-08-10T08:55:47.028Z,56.00
2018-08-10T08:58:15.445Z,55.80
2018-08-10T09:00:43.813Z,54.50
2018-08-10T09:03:24.512Z,56.00
2018-08-10T09:05:52.933Z,56.80
2018-08-10T09:08:21.400Z,54.40
2018-08-10T09:10:49.917Z,53.90
2018-08-10T09:13:18.376Z,54.10
2018-08-10T09:15:46.785Z,54.20
2018-08-10T09:18:15.166Z,53.70
2018-08-10T09:20:43.863Z,52.90
2018-08-10T09:23:12.277Z,52.20
2018-08-10T09:25:41.582Z,52.00
2018-08-10T09:28:10.063Z,50.80
2018-08-10T09:30:38.440Z,51.10
2018-08-10T09:33:07.289Z,52.10
2018-08-10T09:35:35.777Z,52.60
2018-08-10T09:38:04.176Z,52.00
2018-08-10T09:40:32.507Z,51.00
2018-08-10T09:43:01.090Z,50.50
2018-08-10T09:45:29.556Z,50.00
2018-08-10T09:47:57.918Z,51.40
2018-08-10T09:50:26.263Z,51.40
2018-08-10T09:52:57.682Z,51.20
2018-08-10T09:55:36.696Z,50.70
2018-08-10T09:58:08.704Z,50.10
2018-08-10T10:00:42.612Z,50.30
2018-08-10T10:03:17.457Z,49.30
2018-08-10T10:05:46.397Z,47.80
2018-08-10T10:08:17.613Z,47.60
2018-08-10T10:10:45.983Z,47.80
2018-08-10T10:13:14.847Z,47.10
2018-08-10T10:15:43.566Z,48.30
2018-08-10T10:18:13.184Z,49.50
2018-08-10T10:20:41.728Z,48.00
2018-08-10T10:23:10.153Z,47.20
2018-08-10T10:25:38.495Z,47.30
2018-08-10T10:28:07.021Z,47.50
2018-08-10T10:30:35.677Z,47.30
2018-08-10T10:33:04.102Z,46.10
2018-08-10T10:35:32.493Z,46.80
2018-08-10T10:38:00.871Z,45.60
2018-08-10T10:40:29.202Z,45.50
2018-08-10T10:42:57.593Z,45.50
2018-08-10T10:45:25.912Z,45.90
2018-08-10T10:47:54.298Z,45.40
2018-08-10T10:50:22.617Z,45.20
2018-08-10T10:52:50.986Z,46.30
2018-08-10T10:55:19.368Z,46.10
2018-08-10T10:57:47.676Z,45.80
2018-08-10T11:00:18.008Z,44.80
2018-08-10T11:02:46.876Z,43.30
2018-08-10T11:05:15.253Z,43.00
2018-08-10T11:07:43.640Z,43.10
2018-08-10T11:10:13.521Z,43.30
2018-08-10T11:12:41.858Z,43.70
2018-08-10T11:15:10.993Z,43.70
2018-08-10T11:17:39.322Z,42.90
2018-08-10T11:20:09.335Z,43.20
2018-08-10T11:22:38.321Z,43.50
2018-08-10T11:25:07.597Z,42.50
2018-08-10T11:27:35.946Z,42.60
2018-08-10T11:30:05.685Z,41.50
2018-08-10T11:32:34.015Z,40.90
2018-08-10T11:38:04.992Z,40.30
2018-08-10T11:40:33.316Z,40.20
2018-08-10T11:43:01.641Z,38.40
2018-08-10T11:45:30.001Z,39.90
2018-08-10T11:47:58.340Z,40.70
2018-08-10T11:50:26.761Z,40.10
2018-08-10T11:52:55.048Z,40.10
2018-08-10T11:55:23.374Z,39.70
2018-08-10T11:57:51.682Z,39.70
2018-08-10T12:00:20.129Z,39.50
2018-08-10T12:02:48.439Z,38.60
2018-08-10T12:05:16.765Z,37.80
2018-08-10T12:07:45.098Z,37.80
2018-08-10T12:10:13.461Z,37.80
2018-08-10T12:12:41.792Z,37.10
2018-08-10T12:15:12.097Z,37.70
2018-08-10T12:17:40.404Z,37.20
2018-08-10T12:20:09.337Z,36.20
2018-08-10T12:22:37.730Z,37.30
2018-08-10T12:25:06.160Z,37.20
2018-08-10T12:27:34.488Z,37.20
2018-08-10T12:30:02.903Z,36.30
2018-08-10T12:32:31.206Z,34.90
2018-08-10T12:34:59.560Z,34.50
2018-08-10T12:37:27.890Z,35.40
2018-08-10T12:39:56.892Z,36.10
2018-08-10T12:42:25.193Z,33.10
2018-08-10T12:44:53.532Z,32.50
2018-08-10T12:47:21.845Z,32.50
2018-08-10T12:49:50.181Z,31.70
2018-08-10T12:52:18.509Z,31.30
2018-08-10T12:54:46.844Z,31.60
2018-08-10T12:57:15.184Z,31.70
2018-08-10T12:59:45.344Z,31.40
2018-08-10T13:02:13.677Z,31.80
2018-08-10T13:04:42.008Z,32.30
2018-08-10T13:07:10.332Z,31.70
2018-08-10T13:09:38.660Z,31.20
2018-08-10T13:12:07.020Z,31.60
2018-08-10T13:14:35.411Z,31.60
2018-08-10T13:17:03.779Z,32.90
2018-08-10T13:19:38.760Z,32.90
2018-08-10T13:22:07.071Z,33.20
2018-08-10T13:24:35.396Z,32.80
2018-08-10T13:27:03.744Z,32.20
2018-08-10T13:29:32.106Z,32.60
2018-08-10T13:32:00.414Z,31.90
2018-08-10T13:34:28.757Z,31.20
2018-08-10T13:36:57.125Z,30.10
2018-08-10T13:39:25.430Z,30.00
2018-08-10T13:41:53.756Z,29.90
2018-08-10T13:44:22.067Z,29.60
2018-08-10T13:46:50.459Z,30.60
2018-08-10T13:49:18.780Z,30.50
2018-08-10T13:51:47.137Z,30.50
2018-08-10T13:54:15.450Z,30.30
2018-08-10T13:56:43.812Z,29.60
2018-08-10T13:59:12.204Z,29.20
2018-08-10T14:01:41.507Z,29.00
2018-08-10T14:04:10.042Z,29.10
2018-08-10T14:06:38.627Z,29.20
2018-08-10T14:09:09.414Z,29.10
2018-08-10T14:11:38.159Z,29.40
2018-08-10T14:14:07.679Z,29.30
2018-08-10T14:16:37.118Z,29.00
2018-08-10T14:19:05.557Z,29.10
2018-08-10T14:21:34.344Z,29.60
2018-08-10T14:24:02.937Z,29.70
2018-08-10T14:26:31.290Z,29.70
2018-08-10T14:28:59.756Z,29.80
2018-08-10T14:31:28.099Z,30.40
2018-08-10T14:33:56.751Z,30.30
2018-08-10T14:36:25.072Z,30.50
2018-08-10T14:38:53.551Z,30.20
2018-08-10T14:41:23.055Z,30.20
2018-08-10T14:43:51.624Z,30.10
2018-08-10T14:46:19.985Z,30.70
2018-08-10T14:48:48.380Z,31.60
2018-08-10T14:51:16.704Z,30.80
2018-08-10T14:53:45.308Z,31.10
2018-08-10T14:56:13.579Z,30.90
2018-08-10T14:58:41.931Z,30.70
2018-08-10T15:01:10.281Z,30.40
2018-08-10T15:03:38.607Z,30.70
2018-08-10T15:06:06.913Z,31.20
2018-08-10T15:08:35.248Z,31.00
2018-08-10T15:11:03.676Z,31.70
2018-08-10T15:13:31.998Z,31.90
2018-08-10T15:16:00.432Z,31.30
2018-08-10T15:18:28.763Z,31.10
2018-08-10T15:20:57.059Z,31.10
2018-08-10T15:23:25.382Z,31.00
2018-08-10T15:25:53.724Z,31.00
2018-08-10T15:28:22.212Z,30.80
2018-08-10T15:30:50.588Z,31.10
2018-08-10T15:33:19.010Z,30.90
2018-08-10T15:35:47.319Z,31.10
2018-08-10T15:38:15.677Z,30.40
2018-08-10T15:40:44.120Z,30.50
2018-08-10T15:43:12.448Z,31.00
2018-08-10T15:45:40.736Z,31.40
2018-08-10T15:48:09.097Z,31.50
2018-08-10T15:50:37.420Z,31.20
2018-08-10T15:53:05.768Z,30.70
2018-08-10T15:55:34.108Z,30.00
2018-08-10T15:58:02.456Z,29.70
2018-08-10T16:00:30.957Z,30.00
2018-08-10T16:02:59.653Z,30.00
2018-08-10T16:05:27.979Z,30.20
2018-08-10T16:07:56.281Z,30.80
2018-08-10T16:10:24.872Z,30.80
2018-08-10T16:12:53.192Z,31.20
2018-08-10T16:15:21.517Z,31.40
2018-08-10T16:17:50.033Z,31.00
2018-08-10T16:20:21.868Z,31.40
2018-08-10T16:22:50.560Z,31.40
2018-08-10T16:25:19.032Z,31.20
2018-08-10T16:27:47.599Z,31.50
2018-08-10T16:30:16.824Z,31.50
2018-08-10T16:32:46.151Z,31.30
2018-08-10T16:35:15.566Z,31.20
2018-08-10T16:37:45.583Z,30.60
2018-08-10T16:40:17.942Z,31.00
2018-08-10T16:42:46.341Z,30.90
2018-08-10T16:45:14.883Z,31.40
2018-08-10T16:47:43.788Z,31.80
2018-08-10T16:50:16.269Z,32.30
2018-08-10T16:52:45.031Z,32.50
2018-08-10T16:55:17.000Z,32.90
2018-08-10T16:57:46.035Z,33.60
2018-08-10T17:00:17.127Z,35.30
2018-08-10T17:02:45.817Z,35.30
2018-08-10T17:05:14.757Z,35.60
2018-08-10T17:07:43.197Z,35.00
2018-08-10T17:10:11.712Z,34.80
2018-08-10T17:12:41.181Z,35.20
2018-08-10T17:15:13.328Z,35.80
2018-08-10T17:17:42.483Z,36.00
2018-08-10T17:20:11.113Z,36.00
2018-08-10T17:22:39.592Z,37.00
2018-08-10T17:25:08.768Z,37.60
2018-08-10T17:27:37.192Z,37.40
2018-08-10T17:30:07.324Z,37.50
2018-08-10T17:32:35.663Z,37.70
2018-08-10T17:35:04.144Z,38.40
2018-08-10T17:37:32.552Z,38.90
2018-08-10T17:40:01.734Z,39.00
2018-08-10T17:42:30.061Z,39.50
2018-08-10T17:44:58.407Z,40.00
2018-08-10T17:47:26.736Z,40.10
2018-08-10T17:49:55.069Z,39.70
2018-08-10T17:52:23.795Z,39.60
2018-08-10T17:54:52.165Z,39.70
2018-08-10T17:57:20.540Z,40.40
2018-08-10T17:59:48.960Z,40.90
2018-08-10T18:02:17.290Z,41.40
2018-08-10T18:04:45.604Z,41.50
2018-08-10T18:07:13.911Z,41.90
2018-08-10T18:09:42.224Z,42.00
2018-08-10T18:12:10.586Z,42.30
2018-08-10T18:14:38.957Z,42.50
2018-08-10T18:17:07.444Z,42.80
2018-08-10T18:19:35.880Z,43.10
2018-08-10T18:22:04.301Z,43.50
2018-08-10T18:24:32.656Z,43.70
2018-08-10T18:27:01.003Z,44.10
2018-08-10T18:29:29.356Z,44.40
2018-08-10T18:31:57.679Z,44.40
2018-08-10T18:34:26.097Z,45.10
2018-08-10T18:36:54.423Z,45.40
2018-08-10T18:39:22.772Z,45.30
2018-08-10T18:41:51.085Z,45.50
2018-08-10T18:44:19.408Z,46.00
2018-08-10T18:46:47.752Z,46.50
2018-08-10T18:49:16.068Z,46.90
2018-08-10T18:51:44.400Z,47.10
2018-08-10T18:54:15.120Z,46.90
2018-08-10T18:56:43.473Z,47.20
2018-08-10T18:59:11.772Z,47.40
2018-08-10T19:01:40.132Z,47.20
2018-08-10T19:04:08.431Z,47.40
2018-08-10T19:06:36.787Z,47.50
2018-08-10T19:09:07.732Z,47.50
2018-08-10T19:11:36.071Z,47.90
2018-08-10T19:14:04.468Z,48.00
2018-08-10T19:16:32.846Z,48.20
2018-08-10T19:19:01.258Z,48.60
2018-08-10T19:21:29.612Z,49.10
2018-08-10T19:23:57.942Z,49.50
2018-08-10T19:26:26.352Z,49.70
2018-08-10T19:28:54.660Z,50.00
2018-08-10T19:31:23.009Z,50.50
2018-08-10T19:33:51.320Z,50.70
2018-08-10T19:36:19.703Z,50.90
2018-08-10T19:38:48.084Z,51.20
2018-08-10T19:41:16.432Z,51.40
2018-08-10T19:43:44.735Z,51.40
2018-08-10T19:46:13.080Z,51.60
2018-08-10T19:48:41.465Z,52.00
2018-08-10T19:51:09.796Z,52.20
2018-08-10T19:53:38.151Z,52.00
2018-08-10T19:56:06.907Z,52.30
2018-08-10T19:58:35.248Z,51.80
2018-08-10T20:01:03.640Z,51.90
2018-08-10T20:03:32.129Z,51.90
2018-08-10T20:06:00.524Z,52.20
2018-08-10T20:08:28.905Z,52.20
2018-08-10T20:10:57.232Z,52.10
2018-08-10T20:13:25.532Z,52.20
2018-08-10T20:15:53.915Z,52.50
2018-08-10T20:18:22.208Z,52.50
2018-08-10T20:20:50.543Z,52.80
2018-08-10T20:23:18.907Z,53.10
2018-08-10T20:25:47.261Z,53.10
2018-08-10T20:28:15.573Z,53.40
2018-08-10T20:30:43.915Z,53.40
2018-08-10T20:33:12.233Z,53.70
2018-08-10T20:35:40.596Z,53.70
2018-08-10T20:38:08.980Z,53.80
2018-08-10T20:40:37.328Z,53.80
2018-08-10T20:43:05.692Z,53.70
2018-08-10T20:45:34.234Z,53.70
2018-08-10T20:48:02.689Z,53.60
2018-08-10T20:50:31.155Z,53.70
2018-08-10T20:52:59.561Z,53.50
2018-08-10T20:55:27.992Z,53.60
2018-08-10T20:57:56.289Z,53.90
2018-08-10T21:00:24.704Z,54.00
2018-08-10T21:02:53.005Z,54.20
2018-08-10T21:05:21.304Z,54.10
2018-08-10T21:07:49.648Z,54.40
2018-08-10T21:10:18.017Z,54.10
2018-08-10T21:12:47.010Z,54.40
2018-08-10T21:15:15.984Z,53.90
2018-08-10T21:17:45.119Z,54.30
2018-08-10T21:20:14.625Z,54.50
2018-08-10T21:22:42.989Z,54.30
2018-08-10T21:25:12.050Z,54.30
2018-08-10T21:27:41.195Z,54.50
2018-08-10T21:30:14.741Z,54.60
2018-08-10T21:32:43.055Z,54.40
2018-08-10T21:35:11.376Z,54.20
2018-08-10T21:37:39.899Z,54.00
2018-08-10T21:40:09.256Z,54.10
2018-08-10T21:42:37.761Z,54.00
2018-08-10T21:45:06.569Z,54.20
2018-08-10T21:47:35.121Z,54.20
2018-08-10T21:50:03.585Z,54.50
2018-08-10T21:52:32.021Z,54.80
2018-08-10T21:55:00.430Z,54.20
2018-08-10T21:57:28.758Z,53.50
2018-08-10T21:59:57.060Z,53.10
2018-08-10T22:02:26.020Z,52.80
2018-08-10T22:04:55.133Z,52.10
2018-08-10T22:07:23.464Z,52.30
2018-08-10T22:09:51.772Z,52.20
2018-08-10T22:12:22.995Z,52.50
2018-08-10T22:14:56.689Z,52.50
2018-08-10T22:17:30.480Z,53.20
2018-08-10T22:19:59.295Z,52.50
2018-08-10T22:22:28.126Z,53.20
2018-08-10T22:24:56.451Z,53.40
2018-08-10T22:27:24.773Z,53.20
2018-08-10T22:29:53.092Z,53.10
2018-08-10T22:32:21.420Z,53.40
2018-08-10T22:34:49.749Z,53.50
2018-08-10T22:37:18.162Z,53.90
2018-08-10T22:39:46.485Z,54.30
2018-08-10T22:42:14.837Z,54.70
2018-08-10T22:44:43.149Z,54.70
2018-08-10T22:47:11.484Z,55.00
2018-08-10T22:49:40.040Z,55.70
2018-08-10T22:52:08.554Z,55.70
2018-08-10T22:54:36.925Z,55.70
2018-08-10T22:57:05.288Z,56.10
2018-08-10T22:59:33.712Z,56.10
2018-08-10T23:02:02.261Z,56.50
2018-08-10T23:04:30.712Z,56.50
2018-08-10T23:06:59.370Z,56.60
2018-08-10T23:09:27.688Z,56.70
2018-08-10T23:11:56.003Z,56.90
2018-08-10T23:14:24.310Z,57.20
2018-08-10T23:16:52.661Z,57.30
2018-08-10T23:19:20.996Z,57.30
2018-08-10T23:21:49.342Z,57.50
2018-08-10T23:24:17.708Z,57.80
2018-08-10T23:26:46.062Z,58.00
2018-08-10T23:29:14.372Z,58.10
2018-08-10T23:31:42.720Z,58.20
2018-08-10T23:34:11.085Z,57.70
2018-08-10T23:36:39.968Z,58.00
2018-08-10T23:39:10.280Z,58.10
2018-08-10T23:41:39.937Z,58.00
2018-08-10T23:44:08.636Z,58.20
2018-08-10T23:46:36.985Z,57.90
2018-08-10T23:49:05.616Z,57.60
2018-08-10T23:51:33.925Z,57.40
2018-08-10T23:54:02.328Z,57.50
2018-08-10T23:56:30.764Z,58.60
2018-08-10T23:58:59.394Z,58.00
